sensor_id;sensor_type;location;lat;lon;timestamp;P1;durP1;ratioP1;P2;durP2;ratioP2
10341;SDS011;5216;54.602;18.356;2022-08-03T00:01:29;6.15;;;3.10;;
10341;SDS011;5216;54.602;18.356;2022-08-03T00:03:55;7.03;;;3.20;;
10341;SDS011;5216;54.602;18.356;2022-08-03T00:06:22;5.15;;;3.00;;
10341;SDS011;5216;54.602;18.356;2022-08-03T00:08:48;8.13;;;3.10;;
10341;SDS011;5216;54.602;18.356;2022-08-03T00:11:15;7.47;;;3.20;;
10341;SDS011;5216;54.602;18.356;2022-08-03T00:13:41;4.88;;;2.97;;
10341;SDS011;5216;54.602;18.356;2022-08-03T00:16:08;5.80;;;3.10;;
10341;SDS011;5216;54.602;18.356;2022-08-03T00:18:36;7.60;;;3.53;;
10341;SDS011;5216;54.602;18.356;2022-08-03T00:21:03;7.65;;;3.08;;
10341;SDS011;5216;54.602;18.356;2022-08-03T00:23:29;6.07;;;3.00;;
10341;SDS011;5216;54.602;18.356;2022-08-03T00:26:16;6.00;;;2.78;;
10341;SDS011;5216;54.602;18.356;2022-08-03T00:28:42;5.80;;;2.80;;
10341;SDS011;5216;54.602;18.356;2022-08-03T00:31:09;6.50;;;3.10;;
10341;SDS011;5216;54.602;18.356;2022-08-03T00:33:39;7.13;;;3.40;;
10341;SDS011;5216;54.602;18.356;2022-08-03T00:36:24;8.80;;;3.22;;
10341;SDS011;5216;54.602;18.356;2022-08-03T00:38:51;6.43;;;3.20;;
10341;SDS011;5216;54.602;18.356;2022-08-03T00:41:17;6.28;;;3.50;;
10341;SDS011;5216;54.602;18.356;2022-08-03T00:43:44;6.22;;;3.67;;
10341;SDS011;5216;54.602;18.356;2022-08-03T00:46:10;5.18;;;3.20;;
10341;SDS011;5216;54.602;18.356;2022-08-03T00:48:37;6.28;;;3.00;;
10341;SDS011;5216;54.602;18.356;2022-08-03T00:51:03;5.13;;;3.00;;
10341;SDS011;5216;54.602;18.356;2022-08-03T00:53:30;7.13;;;3.10;;
10341;SDS011;5216;54.602;18.356;2022-08-03T00:55:57;7.03;;;3.10;;
10341;SDS011;5216;54.602;18.356;2022-08-03T00:58:23;8.60;;;3.85;;
10341;SDS011;5216;54.602;18.356;2022-08-03T01:00:50;4.93;;;3.03;;
10341;SDS011;5216;54.602;18.356;2022-08-03T01:03:17;6.82;;;2.95;;
10341;SDS011;5216;54.602;18.356;2022-08-03T01:05:52;5.35;;;3.00;;
10341;SDS011;5216;54.602;18.356;2022-08-03T01:08:22;5.82;;;2.65;;
10341;SDS011;5216;54.602;18.356;2022-08-03T01:11:02;3.65;;;2.50;;
10341;SDS011;5216;54.602;18.356;2022-08-03T01:13:40;7.63;;;3.00;;
10341;SDS011;5216;54.602;18.356;2022-08-03T01:19:23;7.10;;;2.58;;
10341;SDS011;5216;54.602;18.356;2022-08-03T01:24:43;5.57;;;2.67;;
10341;SDS011;5216;54.602;18.356;2022-08-03T01:29:59;5.78;;;2.80;;
10341;SDS011;5216;54.602;18.356;2022-08-03T01:32:30;5.85;;;2.55;;
10341;SDS011;5216;54.602;18.356;2022-08-03T01:35:28;4.10;;;2.30;;
10341;SDS011;5216;54.602;18.356;2022-08-03T01:38:02;5.18;;;2.17;;
10341;SDS011;5216;54.602;18.356;2022-08-03T01:40:29;5.32;;;2.38;;
10341;SDS011;5216;54.602;18.356;2022-08-03T01:42:57;4.65;;;2.47;;
10341;SDS011;5216;54.602;18.356;2022-08-03T01:45:24;5.65;;;2.47;;
10341;SDS011;5216;54.602;18.356;2022-08-03T01:47:51;8.65;;;2.65;;
10341;SDS011;5216;54.602;18.356;2022-08-03T01:50:20;7.65;;;2.60;;
10341;SDS011;5216;54.602;18.356;2022-08-03T01:52:47;8.05;;;2.70;;
10341;SDS011;5216;54.602;18.356;2022-08-03T01:55:15;5.35;;;2.63;;
10341;SDS011;5216;54.602;18.356;2022-08-03T01:57:43;7.32;;;2.55;;
10341;SDS011;5216;54.602;18.356;2022-08-03T02:00:30;5.70;;;2.53;;
10341;SDS011;5216;54.602;18.356;2022-08-03T02:02:57;6.40;;;2.60;;
10341;SDS011;5216;54.602;18.356;2022-08-03T02:05:24;5.60;;;2.53;;
10341;SDS011;5216;54.602;18.356;2022-08-03T02:07:52;6.25;;;2.63;;
10341;SDS011;5216;54.602;18.356;2022-08-03T02:10:19;5.80;;;2.38;;
10341;SDS011;5216;54.602;18.356;2022-08-03T02:13:00;4.07;;;2.55;;
10341;SDS011;5216;54.602;18.356;2022-08-03T02:15:27;5.40;;;2.60;;
10341;SDS011;5216;54.602;18.356;2022-08-03T02:17:55;11.15;;;2.70;;
10341;SDS011;5216;54.602;18.356;2022-08-03T02:20:22;5.93;;;2.47;;
10341;SDS011;5216;54.602;18.356;2022-08-03T02:22:49;8.02;;;2.60;;
10341;SDS011;5216;54.602;18.356;2022-08-03T02:25:15;7.25;;;2.90;;
10341;SDS011;5216;54.602;18.356;2022-08-03T02:27:45;5.78;;;2.70;;
10341;SDS011;5216;54.602;18.356;2022-08-03T02:30:14;5.93;;;2.30;;
10341;SDS011;5216;54.602;18.356;2022-08-03T02:32:41;6.03;;;2.63;;
10341;SDS011;5216;54.602;18.356;2022-08-03T02:35:10;6.25;;;3.10;;
10341;SDS011;5216;54.602;18.356;2022-08-03T02:37:42;4.70;;;2.47;;
10341;SDS011;5216;54.602;18.356;2022-08-03T02:40:15;4.60;;;2.30;;
10341;SDS011;5216;54.602;18.356;2022-08-03T02:42:43;5.30;;;1.90;;
10341;SDS011;5216;54.602;18.356;2022-08-03T02:45:11;4.43;;;2.40;;
10341;SDS011;5216;54.602;18.356;2022-08-03T02:47:40;4.38;;;2.30;;
10341;SDS011;5216;54.602;18.356;2022-08-03T02:50:20;5.00;;;2.45;;
10341;SDS011;5216;54.602;18.356;2022-08-03T02:52:47;5.32;;;2.40;;
10341;SDS011;5216;54.602;18.356;2022-08-03T02:55:14;3.78;;;2.33;;
10341;SDS011;5216;54.602;18.356;2022-08-03T02:57:41;4.43;;;2.25;;
10341;SDS011;5216;54.602;18.356;2022-08-03T03:00:09;3.22;;;2.13;;
10341;SDS011;5216;54.602;18.356;2022-08-03T03:02:35;5.88;;;2.53;;
10341;SDS011;5216;54.602;18.356;2022-08-03T03:05:03;5.55;;;2.33;;
10341;SDS011;5216;54.602;18.356;2022-08-03T03:07:49;4.10;;;2.08;;
10341;SDS011;5216;54.602;18.356;2022-08-03T03:10:20;3.58;;;2.10;;
10341;SDS011;5216;54.602;18.356;2022-08-03T03:12:49;4.00;;;1.95;;
10341;SDS011;5216;54.602;18.356;2022-08-03T03:15:17;5.05;;;2.28;;
10341;SDS011;5216;54.602;18.356;2022-08-03T03:17:44;5.97;;;2.35;;
10341;SDS011;5216;54.602;18.356;2022-08-03T03:20:11;4.47;;;2.38;;
10341;SDS011;5216;54.602;18.356;2022-08-03T03:22:40;4.57;;;2.20;;
10341;SDS011;5216;54.602;18.356;2022-08-03T03:25:10;6.28;;;2.60;;
10341;SDS011;5216;54.602;18.356;2022-08-03T03:27:37;5.85;;;2.20;;
10341;SDS011;5216;54.602;18.356;2022-08-03T03:30:04;4.53;;;2.47;;
10341;SDS011;5216;54.602;18.356;2022-08-03T03:32:31;5.68;;;2.50;;
10341;SDS011;5216;54.602;18.356;2022-08-03T03:34:57;4.57;;;2.40;;
10341;SDS011;5216;54.602;18.356;2022-08-03T03:37:27;4.38;;;2.20;;
10341;SDS011;5216;54.602;18.356;2022-08-03T03:39:54;6.15;;;2.40;;
10341;SDS011;5216;54.602;18.356;2022-08-03T03:42:21;5.82;;;2.50;;
10341;SDS011;5216;54.602;18.356;2022-08-03T03:44:47;6.97;;;2.30;;
10341;SDS011;5216;54.602;18.356;2022-08-03T03:47:14;5.15;;;2.70;;
10341;SDS011;5216;54.602;18.356;2022-08-03T03:49:42;7.80;;;2.65;;
10341;SDS011;5216;54.602;18.356;2022-08-03T03:52:09;4.32;;;2.30;;
10341;SDS011;5216;54.602;18.356;2022-08-03T03:54:42;3.75;;;2.40;;
10341;SDS011;5216;54.602;18.356;2022-08-03T03:57:08;7.00;;;2.67;;
10341;SDS011;5216;54.602;18.356;2022-08-03T03:59:41;5.75;;;2.90;;
10341;SDS011;5216;54.602;18.356;2022-08-03T04:02:08;8.90;;;2.90;;
10341;SDS011;5216;54.602;18.356;2022-08-03T04:04:35;8.75;;;2.92;;
10341;SDS011;5216;54.602;18.356;2022-08-03T04:07:22;9.15;;;2.95;;
10341;SDS011;5216;54.602;18.356;2022-08-03T04:10:19;6.90;;;2.92;;
10341;SDS011;5216;54.602;18.356;2022-08-03T04:13:08;10.15;;;2.92;;
10341;SDS011;5216;54.602;18.356;2022-08-03T04:15:36;6.78;;;2.90;;
10341;SDS011;5216;54.602;18.356;2022-08-03T04:18:03;5.97;;;2.53;;
10341;SDS011;5216;54.602;18.356;2022-08-03T04:20:32;4.00;;;2.70;;
10341;SDS011;5216;54.602;18.356;2022-08-03T04:23:00;7.15;;;2.90;;
10341;SDS011;5216;54.602;18.356;2022-08-03T04:25:37;9.25;;;3.25;;
10341;SDS011;5216;54.602;18.356;2022-08-03T04:28:05;6.20;;;2.67;;
10341;SDS011;5216;54.602;18.356;2022-08-03T04:30:52;6.55;;;2.90;;
10341;SDS011;5216;54.602;18.356;2022-08-03T04:33:20;5.85;;;3.03;;
10341;SDS011;5216;54.602;18.356;2022-08-03T04:35:54;5.72;;;2.90;;
10341;SDS011;5216;54.602;18.356;2022-08-03T04:38:27;6.28;;;2.67;;
10341;SDS011;5216;54.602;18.356;2022-08-03T04:40:54;6.00;;;2.67;;
10341;SDS011;5216;54.602;18.356;2022-08-03T04:43:21;6.00;;;2.60;;
10341;SDS011;5216;54.602;18.356;2022-08-03T04:45:49;5.53;;;3.05;;
10341;SDS011;5216;54.602;18.356;2022-08-03T04:48:16;9.35;;;3.08;;
10341;SDS011;5216;54.602;18.356;2022-08-03T04:50:43;7.50;;;3.60;;
10341;SDS011;5216;54.602;18.356;2022-08-03T04:53:09;6.03;;;2.88;;
10341;SDS011;5216;54.602;18.356;2022-08-03T04:55:36;5.38;;;2.58;;
10341;SDS011;5216;54.602;18.356;2022-08-03T04:58:02;4.70;;;2.28;;
10341;SDS011;5216;54.602;18.356;2022-08-03T05:00:29;10.30;;;2.90;;
10341;SDS011;5216;54.602;18.356;2022-08-03T05:02:56;4.60;;;2.85;;
10341;SDS011;5216;54.602;18.356;2022-08-03T05:05:23;6.75;;;2.80;;
10341;SDS011;5216;54.602;18.356;2022-08-03T05:07:49;5.40;;;2.60;;
10341;SDS011;5216;54.602;18.356;2022-08-03T05:10:16;5.05;;;2.25;;
10341;SDS011;5216;54.602;18.356;2022-08-03T05:12:44;5.15;;;2.05;;
10341;SDS011;5216;54.602;18.356;2022-08-03T05:15:10;4.82;;;2.28;;
10341;SDS011;5216;54.602;18.356;2022-08-03T05:17:37;5.20;;;2.53;;
10341;SDS011;5216;54.602;18.356;2022-08-03T05:20:04;6.18;;;2.30;;
10341;SDS011;5216;54.602;18.356;2022-08-03T05:22:30;3.85;;;1.95;;
10341;SDS011;5216;54.602;18.356;2022-08-03T05:24:57;4.07;;;2.10;;
10341;SDS011;5216;54.602;18.356;2022-08-03T05:27:23;4.90;;;2.17;;
10341;SDS011;5216;54.602;18.356;2022-08-03T05:29:51;5.43;;;2.15;;
10341;SDS011;5216;54.602;18.356;2022-08-03T05:32:17;4.43;;;2.30;;
10341;SDS011;5216;54.602;18.356;2022-08-03T05:34:44;3.63;;;2.30;;
10341;SDS011;5216;54.602;18.356;2022-08-03T05:37:11;5.32;;;2.60;;
10341;SDS011;5216;54.602;18.356;2022-08-03T05:39:37;5.75;;;2.30;;
10341;SDS011;5216;54.602;18.356;2022-08-03T05:42:04;5.93;;;2.20;;
10341;SDS011;5216;54.602;18.356;2022-08-03T05:44:30;6.28;;;2.28;;
10341;SDS011;5216;54.602;18.356;2022-08-03T05:46:57;8.57;;;2.58;;
10341;SDS011;5216;54.602;18.356;2022-08-03T05:49:24;7.40;;;2.47;;
10341;SDS011;5216;54.602;18.356;2022-08-03T05:51:51;5.90;;;2.30;;
10341;SDS011;5216;54.602;18.356;2022-08-03T05:54:37;9.38;;;2.60;;
10341;SDS011;5216;54.602;18.356;2022-08-03T05:57:22;5.10;;;2.70;;
10341;SDS011;5216;54.602;18.356;2022-08-03T05:59:49;7.15;;;2.83;;
10341;SDS011;5216;54.602;18.356;2022-08-03T06:02:24;9.20;;;2.88;;
10341;SDS011;5216;54.602;18.356;2022-08-03T06:04:51;6.72;;;2.90;;
10341;SDS011;5216;54.602;18.356;2022-08-03T06:07:17;8.90;;;3.13;;
10341;SDS011;5216;54.602;18.356;2022-08-03T06:09:44;6.68;;;2.60;;
10341;SDS011;5216;54.602;18.356;2022-08-03T06:12:30;7.25;;;3.22;;
10341;SDS011;5216;54.602;18.356;2022-08-03T06:14:57;6.97;;;2.92;;
10341;SDS011;5216;54.602;18.356;2022-08-03T06:17:23;9.38;;;3.45;;
10341;SDS011;5216;54.602;18.356;2022-08-03T06:19:52;7.13;;;3.15;;
10341;SDS011;5216;54.602;18.356;2022-08-03T06:22:19;5.70;;;2.60;;
10341;SDS011;5216;54.602;18.356;2022-08-03T06:24:46;6.97;;;3.72;;
10341;SDS011;5216;54.602;18.356;2022-08-03T06:27:18;8.18;;;3.45;;
10341;SDS011;5216;54.602;18.356;2022-08-03T06:30:02;9.75;;;3.65;;
10341;SDS011;5216;54.602;18.356;2022-08-03T06:32:29;19.38;;;10.30;;
10341;SDS011;5216;54.602;18.356;2022-08-03T06:34:55;24.70;;;21.30;;
10341;SDS011;5216;54.602;18.356;2022-08-03T06:37:21;29.10;;;17.80;;
10341;SDS011;5216;54.602;18.356;2022-08-03T06:39:49;17.52;;;9.35;;
10341;SDS011;5216;54.602;18.356;2022-08-03T06:42:16;9.43;;;5.35;;
10341;SDS011;5216;54.602;18.356;2022-08-03T06:44:43;8.30;;;4.07;;
10341;SDS011;5216;54.602;18.356;2022-08-03T06:47:09;8.57;;;3.55;;
10341;SDS011;5216;54.602;18.356;2022-08-03T06:49:36;8.70;;;2.95;;
10341;SDS011;5216;54.602;18.356;2022-08-03T06:52:03;10.43;;;3.20;;
10341;SDS011;5216;54.602;18.356;2022-08-03T06:54:32;11.52;;;3.30;;
10341;SDS011;5216;54.602;18.356;2022-08-03T06:56:58;7.30;;;3.42;;
10341;SDS011;5216;54.602;18.356;2022-08-03T06:59:25;9.48;;;4.18;;
10341;SDS011;5216;54.602;18.356;2022-08-03T07:02:11;9.27;;;4.38;;
10341;SDS011;5216;54.602;18.356;2022-08-03T07:04:44;6.40;;;3.35;;
10341;SDS011;5216;54.602;18.356;2022-08-03T07:07:13;7.00;;;3.00;;
10341;SDS011;5216;54.602;18.356;2022-08-03T07:09:40;9.77;;;2.80;;
10341;SDS011;5216;54.602;18.356;2022-08-03T07:12:07;7.22;;;2.92;;
10341;SDS011;5216;54.602;18.356;2022-08-03T07:14:33;3.35;;;2.10;;
10341;SDS011;5216;54.602;18.356;2022-08-03T07:17:00;4.18;;;2.67;;
10341;SDS011;5216;54.602;18.356;2022-08-03T07:19:29;11.75;;;2.42;;
10341;SDS011;5216;54.602;18.356;2022-08-03T07:21:56;6.18;;;2.78;;
10341;SDS011;5216;54.602;18.356;2022-08-03T07:24:29;5.47;;;2.00;;
10341;SDS011;5216;54.602;18.356;2022-08-03T07:26:55;6.45;;;2.20;;
10341;SDS011;5216;54.602;18.356;2022-08-03T07:29:22;6.07;;;2.05;;
10341;SDS011;5216;54.602;18.356;2022-08-03T07:31:48;7.20;;;3.55;;
10341;SDS011;5216;54.602;18.356;2022-08-03T07:34:15;8.15;;;2.40;;
10341;SDS011;5216;54.602;18.356;2022-08-03T07:36:41;6.22;;;2.30;;
10341;SDS011;5216;54.602;18.356;2022-08-03T07:39:08;5.07;;;2.22;;
10341;SDS011;5216;54.602;18.356;2022-08-03T07:41:43;3.67;;;2.10;;
10341;SDS011;5216;54.602;18.356;2022-08-03T07:44:10;4.50;;;1.48;;
10341;SDS011;5216;54.602;18.356;2022-08-03T07:46:36;5.32;;;2.50;;
10341;SDS011;5216;54.602;18.356;2022-08-03T07:49:03;7.13;;;4.43;;
10341;SDS011;5216;54.602;18.356;2022-08-03T07:51:29;6.65;;;3.55;;
10341;SDS011;5216;54.602;18.356;2022-08-03T07:53:56;5.90;;;2.38;;
10341;SDS011;5216;54.602;18.356;2022-08-03T07:56:23;5.40;;;2.45;;
10341;SDS011;5216;54.602;18.356;2022-08-03T07:58:52;3.65;;;2.05;;
10341;SDS011;5216;54.602;18.356;2022-08-03T08:01:19;5.97;;;2.00;;
10341;SDS011;5216;54.602;18.356;2022-08-03T08:03:46;4.30;;;1.70;;
10341;SDS011;5216;54.602;18.356;2022-08-03T08:06:19;7.70;;;1.95;;
10341;SDS011;5216;54.602;18.356;2022-08-03T08:08:46;3.65;;;1.63;;
10341;SDS011;5216;54.602;18.356;2022-08-03T08:11:12;5.72;;;1.98;;
10341;SDS011;5216;54.602;18.356;2022-08-03T08:13:39;5.85;;;2.15;;
10341;SDS011;5216;54.602;18.356;2022-08-03T08:16:05;2.78;;;1.90;;
10341;SDS011;5216;54.602;18.356;2022-08-03T08:18:32;7.40;;;2.50;;
10341;SDS011;5216;54.602;18.356;2022-08-03T08:20:59;5.60;;;1.95;;
10341;SDS011;5216;54.602;18.356;2022-08-03T08:23:28;4.70;;;2.20;;
10341;SDS011;5216;54.602;18.356;2022-08-03T08:26:10;5.10;;;2.10;;
10341;SDS011;5216;54.602;18.356;2022-08-03T08:28:37;5.70;;;2.00;;
10341;SDS011;5216;54.602;18.356;2022-08-03T08:31:04;4.90;;;1.90;;
10341;SDS011;5216;54.602;18.356;2022-08-03T08:33:30;5.13;;;1.98;;
10341;SDS011;5216;54.602;18.356;2022-08-03T08:36:17;3.25;;;1.63;;
10341;SDS011;5216;54.602;18.356;2022-08-03T08:38:44;6.60;;;1.90;;
10341;SDS011;5216;54.602;18.356;2022-08-03T08:41:11;6.47;;;1.90;;
10341;SDS011;5216;54.602;18.356;2022-08-03T08:43:38;7.60;;;2.03;;
10341;SDS011;5216;54.602;18.356;2022-08-03T08:46:05;3.03;;;1.70;;
10341;SDS011;5216;54.602;18.356;2022-08-03T08:48:35;5.07;;;2.15;;
10341;SDS011;5216;54.602;18.356;2022-08-03T08:51:04;7.82;;;2.50;;
10341;SDS011;5216;54.602;18.356;2022-08-03T08:53:31;4.75;;;1.80;;
10341;SDS011;5216;54.602;18.356;2022-08-03T08:56:01;3.63;;;1.83;;
10341;SDS011;5216;54.602;18.356;2022-08-03T08:58:28;4.45;;;2.25;;
10341;SDS011;5216;54.602;18.356;2022-08-03T09:00:55;3.53;;;1.58;;
10341;SDS011;5216;54.602;18.356;2022-08-03T09:03:22;5.63;;;2.30;;
10341;SDS011;5216;54.602;18.356;2022-08-03T09:05:57;4.80;;;2.40;;
10341;SDS011;5216;54.602;18.356;2022-08-03T09:08:23;7.55;;;2.80;;
10341;SDS011;5216;54.602;18.356;2022-08-03T09:10:50;5.97;;;2.42;;
10341;SDS011;5216;54.602;18.356;2022-08-03T09:13:16;4.22;;;2.40;;
10341;SDS011;5216;54.602;18.356;2022-08-03T09:15:43;5.43;;;2.40;;
10341;SDS011;5216;54.602;18.356;2022-08-03T09:18:29;5.10;;;2.45;;
10341;SDS011;5216;54.602;18.356;2022-08-03T09:21:17;4.28;;;2.47;;
10341;SDS011;5216;54.602;18.356;2022-08-03T09:24:00;4.97;;;2.47;;
10341;SDS011;5216;54.602;18.356;2022-08-03T09:26:31;5.78;;;2.55;;
10341;SDS011;5216;54.602;18.356;2022-08-03T09:29:03;9.93;;;2.58;;
10341;SDS011;5216;54.602;18.356;2022-08-03T09:31:37;11.20;;;2.40;;
10341;SDS011;5216;54.602;18.356;2022-08-03T09:34:05;9.57;;;2.30;;
10341;SDS011;5216;54.602;18.356;2022-08-03T09:39:02;9.27;;;2.78;;
10341;SDS011;5216;54.602;18.356;2022-08-03T09:41:32;9.07;;;4.20;;
10341;SDS011;5216;54.602;18.356;2022-08-03T09:43:58;5.60;;;2.92;;
10341;SDS011;5216;54.602;18.356;2022-08-03T09:46:25;8.48;;;2.30;;
10341;SDS011;5216;54.602;18.356;2022-08-03T09:48:53;7.07;;;2.22;;
10341;SDS011;5216;54.602;18.356;2022-08-03T09:51:37;9.65;;;2.42;;
10341;SDS011;5216;54.602;18.356;2022-08-03T09:54:27;6.20;;;2.63;;
10341;SDS011;5216;54.602;18.356;2022-08-03T09:56:53;4.25;;;2.22;;
10341;SDS011;5216;54.602;18.356;2022-08-03T09:59:27;4.53;;;2.28;;
10341;SDS011;5216;54.602;18.356;2022-08-03T10:01:54;11.52;;;2.60;;
10341;SDS011;5216;54.602;18.356;2022-08-03T10:04:21;9.10;;;2.33;;
10341;SDS011;5216;54.602;18.356;2022-08-03T10:07:03;6.47;;;2.25;;
10341;SDS011;5216;54.602;18.356;2022-08-03T10:09:30;10.02;;;2.30;;
10341;SDS011;5216;54.602;18.356;2022-08-03T10:12:05;5.82;;;2.33;;
10341;SDS011;5216;54.602;18.356;2022-08-03T10:14:32;3.33;;;2.08;;
10341;SDS011;5216;54.602;18.356;2022-08-03T10:16:59;4.60;;;1.85;;
10341;SDS011;5216;54.602;18.356;2022-08-03T10:19:25;8.52;;;2.40;;
10341;SDS011;5216;54.602;18.356;2022-08-03T10:21:52;7.60;;;2.30;;
10341;SDS011;5216;54.602;18.356;2022-08-03T10:24:23;10.43;;;2.95;;
10341;SDS011;5216;54.602;18.356;2022-08-03T10:26:49;4.22;;;1.90;;
10341;SDS011;5216;54.602;18.356;2022-08-03T10:29:17;4.68;;;2.30;;
10341;SDS011;5216;54.602;18.356;2022-08-03T10:31:46;7.03;;;2.47;;
10341;SDS011;5216;54.602;18.356;2022-08-03T10:34:24;4.18;;;2.15;;
10341;SDS011;5216;54.602;18.356;2022-08-03T10:36:51;7.28;;;2.20;;
10341;SDS011;5216;54.602;18.356;2022-08-03T10:39:20;5.72;;;2.22;;
10341;SDS011;5216;54.602;18.356;2022-08-03T10:41:47;5.50;;;2.25;;
10341;SDS011;5216;54.602;18.356;2022-08-03T10:44:18;7.80;;;2.42;;
10341;SDS011;5216;54.602;18.356;2022-08-03T10:46:45;4.75;;;2.70;;
10341;SDS011;5216;54.602;18.356;2022-08-03T10:49:21;6.40;;;2.40;;
10341;SDS011;5216;54.602;18.356;2022-08-03T10:52:03;8.63;;;2.50;;
10341;SDS011;5216;54.602;18.356;2022-08-03T10:54:43;3.33;;;2.03;;
10341;SDS011;5216;54.602;18.356;2022-08-03T10:57:48;8.32;;;2.20;;
10341;SDS011;5216;54.602;18.356;2022-08-03T11:00:18;6.32;;;2.72;;
10341;SDS011;5216;54.602;18.356;2022-08-03T11:05:27;4.95;;;2.22;;
10341;SDS011;5216;54.602;18.356;2022-08-03T11:10:39;7.97;;;2.10;;
10341;SDS011;5216;54.602;18.356;2022-08-03T11:13:06;5.68;;;2.20;;
10341;SDS011;5216;54.602;18.356;2022-08-03T11:15:33;6.07;;;2.38;;
10341;SDS011;5216;54.602;18.356;2022-08-03T11:18:09;4.97;;;2.83;;
10341;SDS011;5216;54.602;18.356;2022-08-03T11:20:46;5.47;;;2.33;;
10341;SDS011;5216;54.602;18.356;2022-08-03T11:23:13;4.72;;;2.45;;
10341;SDS011;5216;54.602;18.356;2022-08-03T11:28:26;7.15;;;2.15;;
10341;SDS011;5216;54.602;18.356;2022-08-03T11:30:53;4.47;;;2.20;;
10341;SDS011;5216;54.602;18.356;2022-08-03T11:33:29;5.32;;;2.30;;
10341;SDS011;5216;54.602;18.356;2022-08-03T11:35:57;4.50;;;2.03;;
10341;SDS011;5216;54.602;18.356;2022-08-03T11:38:24;4.15;;;2.20;;
10341;SDS011;5216;54.602;18.356;2022-08-03T11:40:51;4.50;;;2.20;;
10341;SDS011;5216;54.602;18.356;2022-08-03T11:48:33;3.63;;;2.10;;
10341;SDS011;5216;54.602;18.356;2022-08-03T11:51:00;5.43;;;1.90;;
10341;SDS011;5216;54.602;18.356;2022-08-03T11:53:27;6.63;;;2.10;;
10341;SDS011;5216;54.602;18.356;2022-08-03T11:55:56;5.07;;;2.10;;
10341;SDS011;5216;54.602;18.356;2022-08-03T11:58:23;3.10;;;1.83;;
10341;SDS011;5216;54.602;18.356;2022-08-03T12:01:09;6.55;;;2.13;;
10341;SDS011;5216;54.602;18.356;2022-08-03T12:03:37;4.70;;;2.00;;
10341;SDS011;5216;54.602;18.356;2022-08-03T12:06:08;4.57;;;2.28;;
10341;SDS011;5216;54.602;18.356;2022-08-03T12:08:34;4.85;;;2.30;;
10341;SDS011;5216;54.602;18.356;2022-08-03T12:11:01;5.10;;;1.92;;
10341;SDS011;5216;54.602;18.356;2022-08-03T12:13:42;5.07;;;2.20;;
10341;SDS011;5216;54.602;18.356;2022-08-03T12:16:30;7.15;;;2.03;;
10341;SDS011;5216;54.602;18.356;2022-08-03T12:19:00;3.90;;;1.90;;
10341;SDS011;5216;54.602;18.356;2022-08-03T12:21:27;7.57;;;4.68;;
10341;SDS011;5216;54.602;18.356;2022-08-03T12:23:55;7.47;;;2.72;;
10341;SDS011;5216;54.602;18.356;2022-08-03T12:26:22;4.57;;;1.90;;
10341;SDS011;5216;54.602;18.356;2022-08-03T12:28:49;5.45;;;1.95;;
10341;SDS011;5216;54.602;18.356;2022-08-03T12:31:15;3.15;;;2.03;;
10341;SDS011;5216;54.602;18.356;2022-08-03T12:33:56;5.47;;;2.05;;
10341;SDS011;5216;54.602;18.356;2022-08-03T12:36:24;4.35;;;1.80;;
10341;SDS011;5216;54.602;18.356;2022-08-03T12:38:55;4.47;;;1.92;;
10341;SDS011;5216;54.602;18.356;2022-08-03T12:41:28;3.08;;;2.00;;
10341;SDS011;5216;54.602;18.356;2022-08-03T12:43:55;6.47;;;1.98;;
10341;SDS011;5216;54.602;18.356;2022-08-03T12:46:22;4.97;;;2.00;;
10341;SDS011;5216;54.602;18.356;2022-08-03T12:49:05;10.02;;;2.20;;
10341;SDS011;5216;54.602;18.356;2022-08-03T12:51:33;5.93;;;2.10;;
10341;SDS011;5216;54.602;18.356;2022-08-03T12:54:00;5.53;;;2.50;;
10341;SDS011;5216;54.602;18.356;2022-08-03T12:56:27;3.55;;;2.10;;
10341;SDS011;5216;54.602;18.356;2022-08-03T12:58:53;7.72;;;2.35;;
10341;SDS011;5216;54.602;18.356;2022-08-03T13:01:20;5.85;;;2.00;;
10341;SDS011;5216;54.602;18.356;2022-08-03T13:03:51;3.20;;;1.83;;
10341;SDS011;5216;54.602;18.356;2022-08-03T13:06:22;3.47;;;1.95;;
10341;SDS011;5216;54.602;18.356;2022-08-03T13:09:00;4.07;;;2.00;;
10341;SDS011;5216;54.602;18.356;2022-08-03T13:11:27;4.22;;;2.08;;
10341;SDS011;5216;54.602;18.356;2022-08-03T13:14:13;6.50;;;2.47;;
10341;SDS011;5216;54.602;18.356;2022-08-03T13:16:45;8.35;;;2.28;;
10341;SDS011;5216;54.602;18.356;2022-08-03T13:19:12;4.05;;;2.20;;
10341;SDS011;5216;54.602;18.356;2022-08-03T13:21:41;4.03;;;2.00;;
10341;SDS011;5216;54.602;18.356;2022-08-03T13:24:28;6.25;;;3.38;;
10341;SDS011;5216;54.602;18.356;2022-08-03T13:26:55;5.55;;;2.72;;
10341;SDS011;5216;54.602;18.356;2022-08-03T13:29:22;2.88;;;2.10;;
10341;SDS011;5216;54.602;18.356;2022-08-03T13:31:48;3.28;;;2.10;;
10341;SDS011;5216;54.602;18.356;2022-08-03T13:34:16;5.70;;;2.10;;
10341;SDS011;5216;54.602;18.356;2022-08-03T13:36:48;6.28;;;2.30;;
10341;SDS011;5216;54.602;18.356;2022-08-03T13:39:35;17.08;;;7.90;;
10341;SDS011;5216;54.602;18.356;2022-08-03T13:42:21;5.53;;;2.88;;
10341;SDS011;5216;54.602;18.356;2022-08-03T13:44:48;6.38;;;2.60;;
10341;SDS011;5216;54.602;18.356;2022-08-03T13:47:14;7.70;;;2.63;;
10341;SDS011;5216;54.602;18.356;2022-08-03T13:49:41;3.83;;;2.50;;
10341;SDS011;5216;54.602;18.356;2022-08-03T13:52:27;5.03;;;2.17;;
10341;SDS011;5216;54.602;18.356;2022-08-03T13:54:54;7.30;;;2.58;;
10341;SDS011;5216;54.602;18.356;2022-08-03T13:57:20;3.65;;;2.33;;
10341;SDS011;5216;54.602;18.356;2022-08-03T14:00:07;4.50;;;2.20;;
10341;SDS011;5216;54.602;18.356;2022-08-03T14:02:34;6.30;;;2.42;;
10341;SDS011;5216;54.602;18.356;2022-08-03T14:05:01;5.18;;;2.63;;
10341;SDS011;5216;54.602;18.356;2022-08-03T14:07:27;4.68;;;2.15;;
10341;SDS011;5216;54.602;18.356;2022-08-03T14:09:53;5.80;;;2.33;;
10341;SDS011;5216;54.602;18.356;2022-08-03T14:12:20;8.02;;;2.35;;
10341;SDS011;5216;54.602;18.356;2022-08-03T14:14:46;7.18;;;2.03;;
10341;SDS011;5216;54.602;18.356;2022-08-03T14:17:13;3.65;;;2.38;;
10341;SDS011;5216;54.602;18.356;2022-08-03T14:19:41;8.68;;;2.22;;
10341;SDS011;5216;54.602;18.356;2022-08-03T14:22:18;5.75;;;2.60;;
10341;SDS011;5216;54.602;18.356;2022-08-03T14:24:45;5.82;;;2.53;;
10341;SDS011;5216;54.602;18.356;2022-08-03T14:27:11;3.95;;;2.38;;
10341;SDS011;5216;54.602;18.356;2022-08-03T14:29:38;5.22;;;2.42;;
10341;SDS011;5216;54.602;18.356;2022-08-03T14:32:05;4.40;;;2.33;;
10341;SDS011;5216;54.602;18.356;2022-08-03T14:34:37;5.10;;;2.38;;
10341;SDS011;5216;54.602;18.356;2022-08-03T14:37:03;4.43;;;2.55;;
10341;SDS011;5216;54.602;18.356;2022-08-03T14:39:30;7.80;;;3.83;;
10341;SDS011;5216;54.602;18.356;2022-08-03T14:42:16;10.52;;;4.18;;
10341;SDS011;5216;54.602;18.356;2022-08-03T14:44:46;5.63;;;2.75;;
10341;SDS011;5216;54.602;18.356;2022-08-03T14:47:14;4.80;;;2.63;;
10341;SDS011;5216;54.602;18.356;2022-08-03T14:49:40;5.30;;;2.45;;
10341;SDS011;5216;54.602;18.356;2022-08-03T14:52:27;3.65;;;2.13;;
10341;SDS011;5216;54.602;18.356;2022-08-03T14:54:53;4.20;;;2.25;;
10341;SDS011;5216;54.602;18.356;2022-08-03T14:57:20;4.45;;;2.42;;
10341;SDS011;5216;54.602;18.356;2022-08-03T14:59:47;3.47;;;2.67;;
10341;SDS011;5216;54.602;18.356;2022-08-03T15:02:22;5.03;;;2.55;;
10341;SDS011;5216;54.602;18.356;2022-08-03T15:04:51;6.13;;;2.70;;
10341;SDS011;5216;54.602;18.356;2022-08-03T15:07:18;3.92;;;2.40;;
10341;SDS011;5216;54.602;18.356;2022-08-03T15:09:46;6.78;;;2.22;;
10341;SDS011;5216;54.602;18.356;2022-08-03T15:12:12;4.22;;;2.17;;
10341;SDS011;5216;54.602;18.356;2022-08-03T15:14:39;4.28;;;2.40;;
10341;SDS011;5216;54.602;18.356;2022-08-03T15:17:06;3.65;;;2.13;;
10341;SDS011;5216;54.602;18.356;2022-08-03T15:19:32;3.95;;;2.55;;
10341;SDS011;5216;54.602;18.356;2022-08-03T15:22:19;3.38;;;2.30;;
10341;SDS011;5216;54.602;18.356;2022-08-03T15:25:00;7.75;;;2.50;;
10341;SDS011;5216;54.602;18.356;2022-08-03T15:27:26;4.80;;;2.75;;
10341;SDS011;5216;54.602;18.356;2022-08-03T15:29:53;4.85;;;2.58;;